»·PEaware :: N754K KLAS-KBUR

N754K :: KLAS-KBUR

FLIGHT INFORMATION

Flight Status: Arrived
Operator: Privately registered:
United States
More flights under this callsign
Pilot: Tyler J. (19619)
Aircraft: PIPER PA-46-500TP MALIBU MERIDIAN
(P46T)
More flights by this aircraft type
Origin: KLAS McCarran Intl
United States
Destination: KBUR Bob Hope-Burbank
United States
More flights between these airports :: More routes between these airports
Route: OASYS V394 POM V210 PIRRO V186 DARTS
File this flight plan on PilotEdge
Remarks:
Altitude:
(Current/Filed)
16,500ft
Speed:
(Current/Filed)
230kts
Departed: 25-May-19 06:30 PM
Arrived: 25-May-19 07:40 PM
Distance/Time
Traveled:
194nm/1:09
Distance/Time
To Go:
Arrived

Flight Plot

Page will automatically refresh every two minutes.

Flight plan parsing failed; only flown route is shown


Map Options




Map Legend


Flown Route
Filed Route
Departure Airport
Arrival Airport
Navaid (VOR, NDB)
Fix

Horizontal Profiles

Position Reports

Time Latitude Longitude Heading Altitude Ground
Speed
25-May-19 18:09 36.099105 -115.162409 310 2185ft 0kts
25-May-19 18:10 36.099105 -115.162409 310 2185ft 0kts
25-May-19 18:11 36.099105 -115.162409 310 2185ft 0kts
25-May-19 18:12 36.099105 -115.162409 310 2185ft 0kts
25-May-19 18:13 36.099105 -115.162409 310 2185ft 0kts
25-May-19 18:14 36.099105 -115.162409 310 2185ft 0kts
25-May-19 18:15 36.099105 -115.162409 310 2185ft 0kts
25-May-19 18:16 36.099105 -115.162409 310 2185ft 0kts
25-May-19 18:17 36.099105 -115.162409 310 2185ft 0kts
25-May-19 18:18 36.099105 -115.162409 310 2185ft 0kts
25-May-19 18:19 36.099105 -115.162409 310 2185ft 0kts
25-May-19 18:20 36.099106 -115.162411 311 2185ft 0kts
25-May-19 18:21 36.098631 -115.161883 121 2185ft 9kts
25-May-19 18:22 36.098502 -115.161621 121 2185ft 0kts
25-May-19 18:23 36.098383 -115.161370 117 2185ft 1kts
25-May-19 18:24 36.098493 -115.159471 26 2185ft 9kts
25-May-19 18:25 36.099521 -115.158051 34 2185ft 8kts
25-May-19 18:26 36.099754 -115.157210 109 2185ft 0kts
25-May-19 18:27 36.099753 -115.157207 109 2185ft 0kts
25-May-19 18:28 36.099704 -115.157045 112 2185ft 7kts
25-May-19 18:29 36.089692 -115.161946 203 2222ft 95kts
25-May-19 18:30 36.058743 -115.170333 186 4162ft 121kts
25-May-19 18:31 36.015174 -115.172270 181 4763ft 160kts
25-May-19 18:32 35.969091 -115.172756 183 4774ft 164kts
25-May-19 18:33 35.923420 -115.176662 188 4974ft 161kts
25-May-19 18:34 35.884184 -115.204154 224 6334ft 168kts
25-May-19 18:35 35.856307 -115.250915 237 6442ft 163kts
25-May-19 18:36 35.832821 -115.299791 233 6410ft 173kts
25-May-19 18:37 35.804128 -115.346510 229 6388ft 169kts
25-May-19 18:38 35.777622 -115.391681 231 6705ft 163kts
25-May-19 18:39 35.746464 -115.433290 226 6707ft 167kts
25-May-19 18:40 35.715820 -115.477532 228 7408ft 180kts
25-May-19 18:41 35.683463 -115.525373 228 8536ft 183kts
25-May-19 18:42 35.650862 -115.573649 228 9733ft 184kts
25-May-19 18:43 35.618056 -115.622168 227 10933ft 184kts
25-May-19 18:44 35.585163 -115.670736 226 12133ft 184kts
25-May-19 18:45 35.552030 -115.719578 226 13335ft 188kts
25-May-19 18:46 35.518487 -115.768982 227 14536ft 187kts
25-May-19 18:47 35.485313 -115.817771 227 15732ft 185kts
25-May-19 18:48 35.451684 -115.867117 227 16534ft 197kts
25-May-19 18:49 35.415626 -115.920020 227 16549ft 205kts
25-May-19 18:50 35.378769 -115.974014 227 16555ft 207kts
25-May-19 18:51 35.342069 -116.028205 228 16570ft 206kts
25-May-19 18:52 35.305560 -116.082491 228 16581ft 205kts
25-May-19 18:53 35.269204 -116.136441 228 16586ft 205kts
25-May-19 18:54 35.231576 -116.189067 226 16590ft 205kts
25-May-19 18:55 35.194090 -116.241604 227 16591ft 205kts
25-May-19 18:56 35.156608 -116.294518 227 16594ft 205kts
25-May-19 18:57 35.119201 -116.347346 227 16597ft 205kts
25-May-19 18:58 35.081621 -116.400355 227 16599ft 206kts
25-May-19 18:59 35.044081 -116.453229 227 16599ft 206kts
25-May-19 19:00 35.007851 -116.504182 227 16592ft 206kts
25-May-19 19:01 34.970179 -116.557090 227 16600ft 206kts
25-May-19 19:02 34.932491 -116.609936 227 16610ft 206kts
25-May-19 19:03 34.894566 -116.663031 227 16557ft 207kts
25-May-19 19:05 34.856744 -116.715904 227 16554ft 207kts
25-May-19 19:06 34.818870 -116.768765 227 16542ft 207kts
25-May-19 19:07 34.781065 -116.821457 227 16559ft 206kts
25-May-19 19:08 34.743149 -116.874218 227 16568ft 207kts
25-May-19 19:09 34.705151 -116.927013 227 16569ft 207kts
25-May-19 19:10 34.667140 -116.979747 227 16563ft 207kts
25-May-19 19:11 34.629089 -117.032460 227 16563ft 207kts
25-May-19 19:12 34.590979 -117.085178 227 16578ft 207kts
25-May-19 19:13 34.552931 -117.137725 227 16578ft 207kts
25-May-19 19:14 34.514845 -117.190243 228 16575ft 207kts
25-May-19 19:15 34.476256 -117.243379 228 16477ft 210kts
25-May-19 19:16 34.437857 -117.296181 228 16485ft 208kts
25-May-19 19:17 34.399430 -117.348937 228 16492ft 208kts
25-May-19 19:18 34.361163 -117.401393 228 16492ft 208kts
25-May-19 19:19 34.322797 -117.453904 228 16491ft 209kts
25-May-19 19:20 34.284196 -117.506668 228 16491ft 209kts
25-May-19 19:20 34.251983 -117.550642 228 16497ft 209kts
25-May-19 19:22 34.207038 -117.611908 228 16130ft 204kts
25-May-19 19:23 34.170961 -117.661055 229 14991ft 188kts
25-May-19 19:23 34.142581 -117.699958 229 13991ft 183kts
25-May-19 19:25 34.103014 -117.754341 229 12378ft 189kts
25-May-19 19:26 34.078464 -117.808985 264 10890ft 193kts
25-May-19 19:26 34.076253 -117.861035 266 9495ft 181kts
25-May-19 19:28 34.073483 -117.930457 266 7522ft 176kts
25-May-19 19:28 34.071530 -117.979420 267 6105ft 174kts
25-May-19 19:29 34.077855 -118.036487 289 4585ft 165kts
25-May-19 19:30 34.094723 -118.086312 290 4326ft 164kts
25-May-19 19:31 34.111626 -118.134511 290 3469ft 137kts
25-May-19 19:32 34.128006 -118.179463 290 2514ft 145kts
25-May-19 19:33 34.145132 -118.226944 290 2501ft 162kts
25-May-19 19:34 34.155773 -118.279426 257 2497ft 160kts
25-May-19 19:35 34.155476 -118.332481 270 2501ft 162kts
25-May-19 19:36 34.158439 -118.386086 277 2375ft 133kts
25-May-19 19:37 34.185587 -118.401093 2 1628ft 114kts
25-May-19 19:38 34.198120 -118.379505 96 999ft 89kts
25-May-19 19:39 34.197911 -118.357925 14 782ft 9kts
25-May-19 19:40 34.198967 -118.358516 271 782ft 11kts
25-May-19 19:41 34.199081 -118.363449 271 782ft 13kts
25-May-19 19:42 34.200093 -118.364586 297 782ft 2kts
25-May-19 19:43 34.200113 -118.364932 270 782ft 0kts
25-May-19 19:44 34.200113 -118.364932 270 782ft 0kts
25-May-19 19:45 34.200113 -118.364932 270 782ft 0kts
25-May-19 19:46 34.200113 -118.364932 270 782ft 0kts
25-May-19 19:47 34.200113 -118.364932 270 782ft 0kts
25-May-19 19:48 34.200113 -118.364932 270 782ft 0kts
25-May-19 19:49 34.200113 -118.364932 270 782ft 0kts
25-May-19 19:50 34.200113 -118.364932 270 782ft 0kts
25-May-19 19:51 34.200113 -118.364932 270 782ft 0kts
25-May-19 19:52 34.200113 -118.364932 270 782ft 0kts
25-May-19 19:53 34.200113 -118.364932 270 782ft 0kts

Navigation Log

Ident Type
Flight plan parsing failed, navigation log unavailable